ADDS METAR Data INFO
IDs: Format: Raw Decoded Include TAF

Data at: 2306 UTC 16 Jan 2018

KGUY 162253Z AUTO 00000KT 10SM CLR M03/M19 A3053 RMK AO2 SLP377 T10281189
KGUY 162153Z AUTO 00000KT 10SM CLR M03/M19 A3055 RMK AO2 SLP382 T10281189
KGUY 162053Z AUTO 00000KT 10SM CLR M03/M19 A3057 RMK AO2 SLP388 T10331189 56031
KGUY 161953Z AUTO 10SM CLR M04/M20 A3059 RMK AO2 SLP397 T10391200
KGUY 161853Z AUTO 35007KT 10SM CLR M06/M19 A3063 RMK AO2 SLP413 T10561194
KGUY 161753Z AUTO 36009KT 10SM CLR M07/M19 A3067 RMK AO2 SLP428 T10671189 11067 21183 58008
KGUY 161653Z AUTO 01010KT 10SM CLR M08/M20 A3070 RMK AO2 SLP440 T10831200
KGUY 161553Z AUTO 01011KT 10SM CLR M11/M21 A3070 RMK AO2 SLP440 T11061211
KGUY 161453Z AUTO 34007KT 10SM CLR M13/M21 A3069 RMK AO2 SLP438 T11331211 53003
KGUY 161353Z AUTO 36006KT 10SM CLR M17/M23 A3069 RMK AO2 SLP439 T11671228
KGUY 161253Z AUTO 33007KT 10SM CLR M17/M23 A3068 RMK AO2 SLP441 T11721228
KGUY 161153Z AUTO 31006KT 10SM CLR M16/M22 A3068 RMK AO2 SLP435 T11561217 11139 21161 55000
KGUY 161053Z AUTO 33008KT 10SM CLR M15/M21 A3068 RMK AO2 SLP430 T11501211
KGUY 160953Z AUTO 34009KT 10SM CLR M15/M20 A3068 RMK AO2 SLP432 T11501200
KGUY 160853Z AUTO 35008KT 10SM CLR M15/M20 A3068 RMK AO2 SLP433 T11501200 53001
KGUY 160753Z AUTO 35010KT 10SM CLR M14/M19 A3067 RMK AO2 SLP426 T11441194
KGUY 160653Z AUTO 36007KT 10SM CLR M14/M20 A3068 RMK AO2 SLP429 T11441200
KGUY 160553Z AUTO 01004KT 10SM CLR M14/M20 A3068 RMK AO2 SLP428 T11391200 11061 21144 400061144 51014
KGUY 160453Z AUTO 01007KT 10SM CLR M13/M20 A3068 RMK AO2 SLP427 T11331200
KGUY 160353Z AUTO 02005KT 10SM CLR M12/M19 A3066 RMK AO2 SLP417 T11171194
KGUY 160253Z AUTO 03009KT 10SM OVC100 M08/M18 A3064 RMK AO2 SLP402 T10831183 51028
KGUY 160153Z AUTO 04008KT 10SM OVC095 M07/M18 A3061 RMK AO2 SLP389 T10721183
KGUY 160053Z AUTO 02006KT 10SM BKN100 M08/M18 A3058 RMK AO2 SLP380 T10831183
KGUY 152353Z AUTO 03012KT 10SM OVC070 M06/M18 A3054 RMK AO2 SLP364 T10611183 11033 21061 53016
KGUY 152253Z AUTO 01015KT 10SM OVC070 M04/M17 A3052 RMK AO2 SLP363 T10441172
KGUY 152153Z AUTO 36013KT 10SM OVC070 M05/M17 A3051 RMK AO2 SLP359 T10501167
KGUY 152053Z AUTO 02014KT 10SM OVC065 M05/M18 A3049 RMK AO2 SLP351 T10501183 55001
KGUY 151953Z AUTO 02019KT 10SM OVC060 M04/M19 A3048 RMK AO2 PK WND 01030/1857 SLP342 T10441189
KGUY 151853Z AUTO 01019G23KT 10SM FEW031 OVC060 M04/M14 A3049 RMK AO2 SLP346 T10391139
KGUY 151803Z AUTO 02019KT 10SM SCT027 OVC060 M03/M12 A3050 RMK AO2 T10331122
KGUY 151753Z AUTO 01020G25KT 10SM BKN027 OVC060 M03/M12 A3050 RMK AO2 SLP346 T10331117 11006 21033 50028
KGUY 151653Z AUTO 03015G23KT 10SM OVC022 M03/M09 A3050 RMK AO2 PK WND 04026/1602 SLP346 T10331089
KGUY 151553Z AUTO 04015G26KT 10SM OVC020 M03/M08 A3046 RMK AO2 PK WND 03029/1541 SLP331 T10281083
KGUY 151533Z AUTO 03019G27KT 10SM OVC014 M03/M06 A3044 RMK AO2 PK WND 02027/1531 T10281061
KGUY 151453Z AUTO 02018G23KT 10SM OVC016 M02/M05 A3041 RMK AO2 PK WND 03028/1435 SLP309 T10221050 51056
KGUY 151443Z AUTO 03017G28KT 10SM OVC016 M02/M05 A3040 RMK AO2 PK WND 03028/1435 PRESRR T10221050
KGUY 151422Z AUTO 04021G28KT 10SM FEW007 OVC014 M02/M04 A3037 RMK AO2 PK WND 03028/1402 T10171044
KGUY 151353Z AUTO 04016G28KT 10SM OVC008 M01/M02 A3035 RMK AO2 PK WND 04031/1318 CIG 006V010 SLP288 T10111022
KGUY 151253Z AUTO 03016G27KT 10SM OVC010 M01/M02 A3030 RMK AO2 PK WND 05029/1225 SLP267 T10061022
KGUY 151232Z AUTO 04022G29KT 10SM OVC010 M01/M02 A3027 RMK AO2 PK WND 05029/1225 CIG 008V014 T10061017
KGUY 151153Z AUTO 05024G31KT 10SM OVC007 01/M01 A3023 RMK AO2 PK WND 04033/1124 SLP235 T00061006 10006 21067 53041
KGUY 151134Z AUTO 04025G32KT 10SM BKN007 OVC011 01/M01 A3020 RMK AO2 PK WND 04033/1124 T00061006
KGUY 151123Z AUTO 04025G33KT 10SM BKN010 00/M02 A3019 RMK AO2 PK WND 05033/1123 CIG 007V013 T00001017